sensor_id;sensor_type;location;lat;lon;timestamp;P1;durP1;ratioP1;P2;durP2;ratioP2
15402;SDS011;7799;53.478;10.170;2023-07-30T00:01:25;0.90;;;0.90;;
15402;SDS011;7799;53.478;10.170;2023-07-30T00:03:52;0.90;;;0.90;;
15402;SDS011;7799;53.478;10.170;2023-07-30T00:06:19;1.10;;;1.00;;
15402;SDS011;7799;53.478;10.170;2023-07-30T00:08:45;1.30;;;1.20;;
15402;SDS011;7799;53.478;10.170;2023-07-30T00:11:12;1.20;;;1.10;;
15402;SDS011;7799;53.478;10.170;2023-07-30T00:13:40;1.00;;;1.00;;
15402;SDS011;7799;53.478;10.170;2023-07-30T00:16:07;1.07;;;1.07;;
15402;SDS011;7799;53.478;10.170;2023-07-30T00:18:33;0.93;;;0.93;;
15402;SDS011;7799;53.478;10.170;2023-07-30T00:21:00;0.90;;;0.90;;
15402;SDS011;7799;53.478;10.170;2023-07-30T00:23:27;1.00;;;1.00;;
15402;SDS011;7799;53.478;10.170;2023-07-30T00:25:53;1.93;;;1.83;;
15402;SDS011;7799;53.478;10.170;2023-07-30T00:28:20;2.00;;;1.90;;
15402;SDS011;7799;53.478;10.170;2023-07-30T00:30:48;1.53;;;1.43;;
15402;SDS011;7799;53.478;10.170;2023-07-30T00:33:14;1.50;;;1.40;;
15402;SDS011;7799;53.478;10.170;2023-07-30T00:35:41;1.50;;;1.40;;
15402;SDS011;7799;53.478;10.170;2023-07-30T00:38:08;1.27;;;1.27;;
15402;SDS011;7799;53.478;10.170;2023-07-30T00:40:39;1.30;;;1.20;;
15402;SDS011;7799;53.478;10.170;2023-07-30T00:43:06;1.30;;;1.20;;
15402;SDS011;7799;53.478;10.170;2023-07-30T00:45:32;1.20;;;1.20;;
15402;SDS011;7799;53.478;10.170;2023-07-30T00:48:01;2.10;;;2.00;;
15402;SDS011;7799;53.478;10.170;2023-07-30T00:50:27;2.13;;;1.93;;
15402;SDS011;7799;53.478;10.170;2023-07-30T00:52:54;1.70;;;1.60;;
15402;SDS011;7799;53.478;10.170;2023-07-30T00:55:21;1.60;;;1.50;;
15402;SDS011;7799;53.478;10.170;2023-07-30T00:57:48;2.07;;;1.97;;
15402;SDS011;7799;53.478;10.170;2023-07-30T01:00:15;1.90;;;1.80;;
15402;SDS011;7799;53.478;10.170;2023-07-30T01:02:41;1.90;;;1.80;;
15402;SDS011;7799;53.478;10.170;2023-07-30T01:05:10;1.63;;;1.53;;
15402;SDS011;7799;53.478;10.170;2023-07-30T01:07:37;1.30;;;1.30;;
15402;SDS011;7799;53.478;10.170;2023-07-30T01:10:04;1.83;;;1.73;;
15402;SDS011;7799;53.478;10.170;2023-07-30T01:12:31;2.10;;;1.90;;
15402;SDS011;7799;53.478;10.170;2023-07-30T01:14:59;1.60;;;1.50;;
15402;SDS011;7799;53.478;10.170;2023-07-30T01:17:26;1.30;;;1.20;;
15402;SDS011;7799;53.478;10.170;2023-07-30T01:19:53;1.40;;;1.30;;
15402;SDS011;7799;53.478;10.170;2023-07-30T01:22:22;1.50;;;1.40;;
15402;SDS011;7799;53.478;10.170;2023-07-30T01:24:50;2.00;;;1.90;;
15402;SDS011;7799;53.478;10.170;2023-07-30T01:27:19;1.77;;;1.67;;
15402;SDS011;7799;53.478;10.170;2023-07-30T01:29:50;1.70;;;1.60;;
15402;SDS011;7799;53.478;10.170;2023-07-30T01:32:19;1.93;;;1.83;;
15402;SDS011;7799;53.478;10.170;2023-07-30T01:34:49;1.60;;;1.50;;
15402;SDS011;7799;53.478;10.170;2023-07-30T01:37:17;1.40;;;1.30;;
15402;SDS011;7799;53.478;10.170;2023-07-30T01:39:45;2.00;;;1.90;;
15402;SDS011;7799;53.478;10.170;2023-07-30T01:42:14;1.97;;;1.87;;
15402;SDS011;7799;53.478;10.170;2023-07-30T01:44:41;2.40;;;2.30;;
15402;SDS011;7799;53.478;10.170;2023-07-30T01:47:08;2.60;;;2.30;;
15402;SDS011;7799;53.478;10.170;2023-07-30T01:49:37;2.97;;;2.40;;
15402;SDS011;7799;53.478;10.170;2023-07-30T01:52:04;2.53;;;2.33;;
15402;SDS011;7799;53.478;10.170;2023-07-30T01:54:33;1.70;;;1.60;;
15402;SDS011;7799;53.478;10.170;2023-07-30T01:57:01;1.70;;;1.60;;
15402;SDS011;7799;53.478;10.170;2023-07-30T01:59:28;1.63;;;1.53;;
15402;SDS011;7799;53.478;10.170;2023-07-30T02:01:55;1.70;;;1.60;;
15402;SDS011;7799;53.478;10.170;2023-07-30T02:04:22;1.60;;;1.50;;
15402;SDS011;7799;53.478;10.170;2023-07-30T02:06:48;1.20;;;1.20;;
15402;SDS011;7799;53.478;10.170;2023-07-30T02:09:15;1.37;;;1.27;;
15402;SDS011;7799;53.478;10.170;2023-07-30T02:11:42;1.20;;;1.10;;
15402;SDS011;7799;53.478;10.170;2023-07-30T02:14:10;1.93;;;1.40;;
15402;SDS011;7799;53.478;10.170;2023-07-30T02:16:36;1.30;;;1.20;;
15402;SDS011;7799;53.478;10.170;2023-07-30T02:19:03;1.67;;;1.57;;
15402;SDS011;7799;53.478;10.170;2023-07-30T02:21:30;1.30;;;1.20;;
15402;SDS011;7799;53.478;10.170;2023-07-30T02:23:58;1.23;;;1.20;;
15402;SDS011;7799;53.478;10.170;2023-07-30T02:26:25;1.30;;;1.20;;
15402;SDS011;7799;53.478;10.170;2023-07-30T02:28:51;1.00;;;1.00;;
15402;SDS011;7799;53.478;10.170;2023-07-30T02:31:22;1.40;;;1.10;;
15402;SDS011;7799;53.478;10.170;2023-07-30T02:33:49;1.30;;;1.20;;
15402;SDS011;7799;53.478;10.170;2023-07-30T02:36:16;0.90;;;0.90;;
15402;SDS011;7799;53.478;10.170;2023-07-30T02:38:42;1.03;;;1.03;;
15402;SDS011;7799;53.478;10.170;2023-07-30T02:41:09;0.97;;;0.97;;
15402;SDS011;7799;53.478;10.170;2023-07-30T02:43:36;1.17;;;1.07;;
15402;SDS011;7799;53.478;10.170;2023-07-30T02:46:02;0.80;;;0.80;;
15402;SDS011;7799;53.478;10.170;2023-07-30T02:48:31;0.90;;;0.90;;
15402;SDS011;7799;53.478;10.170;2023-07-30T02:50:57;1.03;;;1.00;;
15402;SDS011;7799;53.478;10.170;2023-07-30T02:53:24;0.97;;;0.97;;
15402;SDS011;7799;53.478;10.170;2023-07-30T02:55:51;0.87;;;0.87;;
15402;SDS011;7799;53.478;10.170;2023-07-30T02:58:18;1.00;;;1.00;;
15402;SDS011;7799;53.478;10.170;2023-07-30T03:00:44;1.00;;;1.00;;
15402;SDS011;7799;53.478;10.170;2023-07-30T03:03:11;1.63;;;1.43;;
15402;SDS011;7799;53.478;10.170;2023-07-30T03:05:42;1.23;;;1.13;;
15402;SDS011;7799;53.478;10.170;2023-07-30T03:08:09;1.20;;;1.10;;
15402;SDS011;7799;53.478;10.170;2023-07-30T03:10:36;1.30;;;1.20;;
15402;SDS011;7799;53.478;10.170;2023-07-30T03:13:03;1.60;;;1.37;;
15402;SDS011;7799;53.478;10.170;2023-07-30T03:15:29;1.30;;;1.20;;
15402;SDS011;7799;53.478;10.170;2023-07-30T03:17:56;1.17;;;1.10;;
15402;SDS011;7799;53.478;10.170;2023-07-30T03:20:23;1.37;;;1.27;;
15402;SDS011;7799;53.478;10.170;2023-07-30T03:22:51;1.50;;;1.40;;
15402;SDS011;7799;53.478;10.170;2023-07-30T03:25:18;1.13;;;1.10;;
15402;SDS011;7799;53.478;10.170;2023-07-30T03:27:47;1.20;;;1.10;;
15402;SDS011;7799;53.478;10.170;2023-07-30T03:30:14;1.40;;;1.30;;
15402;SDS011;7799;53.478;10.170;2023-07-30T03:32:41;1.67;;;1.10;;
15402;SDS011;7799;53.478;10.170;2023-07-30T03:35:08;1.20;;;1.10;;
15402;SDS011;7799;53.478;10.170;2023-07-30T03:37:34;1.20;;;1.10;;
15402;SDS011;7799;53.478;10.170;2023-07-30T03:40:03;0.90;;;0.90;;
15402;SDS011;7799;53.478;10.170;2023-07-30T03:42:30;1.13;;;1.10;;
15402;SDS011;7799;53.478;10.170;2023-07-30T03:44:56;1.20;;;1.00;;
15402;SDS011;7799;53.478;10.170;2023-07-30T03:47:23;1.50;;;1.40;;
15402;SDS011;7799;53.478;10.170;2023-07-30T03:49:50;1.40;;;1.30;;
15402;SDS011;7799;53.478;10.170;2023-07-30T03:52:17;1.30;;;1.00;;
15402;SDS011;7799;53.478;10.170;2023-07-30T03:54:43;1.27;;;1.17;;
15402;SDS011;7799;53.478;10.170;2023-07-30T03:57:11;1.17;;;1.07;;
15402;SDS011;7799;53.478;10.170;2023-07-30T03:59:38;1.03;;;1.03;;
15402;SDS011;7799;53.478;10.170;2023-07-30T04:02:05;1.30;;;1.20;;
15402;SDS011;7799;53.478;10.170;2023-07-30T04:04:32;0.87;;;0.87;;
15402;SDS011;7799;53.478;10.170;2023-07-30T04:06:58;1.00;;;1.00;;
15402;SDS011;7799;53.478;10.170;2023-07-30T04:09:25;1.03;;;1.03;;
15402;SDS011;7799;53.478;10.170;2023-07-30T04:11:52;1.83;;;1.40;;
15402;SDS011;7799;53.478;10.170;2023-07-30T04:14:20;1.30;;;1.20;;
15402;SDS011;7799;53.478;10.170;2023-07-30T04:16:46;1.33;;;1.27;;
15402;SDS011;7799;53.478;10.170;2023-07-30T04:19:14;0.90;;;0.90;;
15402;SDS011;7799;53.478;10.170;2023-07-30T04:21:40;1.23;;;1.13;;
15402;SDS011;7799;53.478;10.170;2023-07-30T04:24:07;1.20;;;1.10;;
15402;SDS011;7799;53.478;10.170;2023-07-30T04:26:34;1.40;;;1.30;;
15402;SDS011;7799;53.478;10.170;2023-07-30T04:29:00;1.23;;;1.13;;
15402;SDS011;7799;53.478;10.170;2023-07-30T04:31:29;1.20;;;1.17;;
15402;SDS011;7799;53.478;10.170;2023-07-30T04:33:57;1.50;;;1.40;;
15402;SDS011;7799;53.478;10.170;2023-07-30T04:36:24;1.67;;;1.57;;
15402;SDS011;7799;53.478;10.170;2023-07-30T04:38:51;1.80;;;1.70;;
15402;SDS011;7799;53.478;10.170;2023-07-30T04:41:20;1.70;;;1.60;;
15402;SDS011;7799;53.478;10.170;2023-07-30T04:43:53;1.60;;;1.50;;
15402;SDS011;7799;53.478;10.170;2023-07-30T04:46:20;1.80;;;1.70;;
15402;SDS011;7799;53.478;10.170;2023-07-30T04:48:48;1.70;;;1.60;;
15402;SDS011;7799;53.478;10.170;2023-07-30T04:51:18;1.80;;;1.70;;
15402;SDS011;7799;53.478;10.170;2023-07-30T04:53:46;1.63;;;1.53;;
15402;SDS011;7799;53.478;10.170;2023-07-30T04:56:12;2.53;;;2.33;;
15402;SDS011;7799;53.478;10.170;2023-07-30T04:58:39;2.30;;;2.10;;
15402;SDS011;7799;53.478;10.170;2023-07-30T05:01:06;2.20;;;2.10;;
15402;SDS011;7799;53.478;10.170;2023-07-30T05:03:33;2.00;;;1.90;;
15402;SDS011;7799;53.478;10.170;2023-07-30T05:06:00;2.07;;;1.97;;
15402;SDS011;7799;53.478;10.170;2023-07-30T05:08:28;2.00;;;1.90;;
15402;SDS011;7799;53.478;10.170;2023-07-30T05:10:54;2.10;;;1.90;;
15402;SDS011;7799;53.478;10.170;2023-07-30T05:13:21;1.73;;;1.43;;
15402;SDS011;7799;53.478;10.170;2023-07-30T05:15:48;2.17;;;1.70;;
15402;SDS011;7799;53.478;10.170;2023-07-30T05:18:14;1.50;;;1.40;;
15402;SDS011;7799;53.478;10.170;2023-07-30T05:20:41;2.03;;;1.93;;
15402;SDS011;7799;53.478;10.170;2023-07-30T05:23:09;2.20;;;2.00;;
15402;SDS011;7799;53.478;10.170;2023-07-30T05:25:35;1.80;;;1.70;;
15402;SDS011;7799;53.478;10.170;2023-07-30T05:28:02;1.73;;;1.63;;
15402;SDS011;7799;53.478;10.170;2023-07-30T05:30:29;2.00;;;1.90;;
15402;SDS011;7799;53.478;10.170;2023-07-30T05:32:56;1.87;;;1.77;;
15402;SDS011;7799;53.478;10.170;2023-07-30T05:35:23;2.43;;;2.10;;
15402;SDS011;7799;53.478;10.170;2023-07-30T05:37:49;2.40;;;2.20;;
15402;SDS011;7799;53.478;10.170;2023-07-30T05:40:17;2.20;;;2.10;;
15402;SDS011;7799;53.478;10.170;2023-07-30T05:42:44;1.97;;;1.87;;
15402;SDS011;7799;53.478;10.170;2023-07-30T05:45:11;2.40;;;2.20;;
15402;SDS011;7799;53.478;10.170;2023-07-30T05:47:39;2.10;;;2.00;;
15402;SDS011;7799;53.478;10.170;2023-07-30T05:50:06;2.10;;;1.90;;
15402;SDS011;7799;53.478;10.170;2023-07-30T05:52:34;1.80;;;1.70;;
15402;SDS011;7799;53.478;10.170;2023-07-30T05:55:00;2.30;;;2.20;;
15402;SDS011;7799;53.478;10.170;2023-07-30T05:57:28;2.83;;;2.63;;
15402;SDS011;7799;53.478;10.170;2023-07-30T05:59:56;2.60;;;2.40;;
15402;SDS011;7799;53.478;10.170;2023-07-30T06:02:22;2.00;;;1.90;;
15402;SDS011;7799;53.478;10.170;2023-07-30T06:04:49;2.50;;;2.30;;
15402;SDS011;7799;53.478;10.170;2023-07-30T06:07:15;2.50;;;2.30;;
15402;SDS011;7799;53.478;10.170;2023-07-30T06:09:42;2.63;;;2.43;;
15402;SDS011;7799;53.478;10.170;2023-07-30T06:12:10;2.30;;;2.10;;
15402;SDS011;7799;53.478;10.170;2023-07-30T06:14:38;2.40;;;2.20;;
15402;SDS011;7799;53.478;10.170;2023-07-30T06:17:05;2.13;;;2.03;;
15402;SDS011;7799;53.478;10.170;2023-07-30T06:19:31;2.60;;;2.30;;
15402;SDS011;7799;53.478;10.170;2023-07-30T06:21:58;3.10;;;2.70;;
15402;SDS011;7799;53.478;10.170;2023-07-30T06:24:25;3.30;;;2.43;;
15402;SDS011;7799;53.478;10.170;2023-07-30T06:26:51;2.73;;;2.47;;
15402;SDS011;7799;53.478;10.170;2023-07-30T06:29:18;2.53;;;2.33;;
15402;SDS011;7799;53.478;10.170;2023-07-30T06:31:46;1.97;;;1.77;;
15402;SDS011;7799;53.478;10.170;2023-07-30T06:34:13;2.43;;;2.23;;
15402;SDS011;7799;53.478;10.170;2023-07-30T06:36:39;2.90;;;2.70;;
15402;SDS011;7799;53.478;10.170;2023-07-30T06:39:06;2.73;;;2.53;;
15402;SDS011;7799;53.478;10.170;2023-07-30T06:41:33;2.57;;;2.37;;
15402;SDS011;7799;53.478;10.170;2023-07-30T06:44:00;2.77;;;2.53;;
15402;SDS011;7799;53.478;10.170;2023-07-30T06:46:27;2.60;;;2.40;;
15402;SDS011;7799;53.478;10.170;2023-07-30T06:48:55;2.40;;;2.20;;
15402;SDS011;7799;53.478;10.170;2023-07-30T06:51:23;3.07;;;2.77;;
15402;SDS011;7799;53.478;10.170;2023-07-30T06:53:50;2.93;;;2.60;;
15402;SDS011;7799;53.478;10.170;2023-07-30T06:56:17;2.87;;;2.40;;
15402;SDS011;7799;53.478;10.170;2023-07-30T06:58:44;2.87;;;2.67;;
15402;SDS011;7799;53.478;10.170;2023-07-30T07:01:10;2.80;;;2.53;;
15402;SDS011;7799;53.478;10.170;2023-07-30T07:03:37;2.60;;;2.40;;
15402;SDS011;7799;53.478;10.170;2023-07-30T07:06:05;2.63;;;2.43;;
15402;SDS011;7799;53.478;10.170;2023-07-30T07:08:32;2.87;;;2.67;;
15402;SDS011;7799;53.478;10.170;2023-07-30T07:10:58;3.57;;;3.13;;
15402;SDS011;7799;53.478;10.170;2023-07-30T07:13:25;3.50;;;3.00;;
15402;SDS011;7799;53.478;10.170;2023-07-30T07:15:52;3.37;;;3.10;;
15402;SDS011;7799;53.478;10.170;2023-07-30T07:18:18;3.67;;;3.37;;
15402;SDS011;7799;53.478;10.170;2023-07-30T07:20:45;4.47;;;3.30;;
15402;SDS011;7799;53.478;10.170;2023-07-30T07:23:13;2.90;;;2.70;;
15402;SDS011;7799;53.478;10.170;2023-07-30T07:25:40;3.00;;;2.70;;
15402;SDS011;7799;53.478;10.170;2023-07-30T07:28:06;2.87;;;2.67;;
15402;SDS011;7799;53.478;10.170;2023-07-30T07:30:34;3.17;;;2.97;;
15402;SDS011;7799;53.478;10.170;2023-07-30T07:33:01;3.47;;;2.97;;
15402;SDS011;7799;53.478;10.170;2023-07-30T07:35:28;3.27;;;2.97;;
15402;SDS011;7799;53.478;10.170;2023-07-30T07:37:55;3.07;;;2.83;;
15402;SDS011;7799;53.478;10.170;2023-07-30T07:40:23;3.23;;;2.93;;
15402;SDS011;7799;53.478;10.170;2023-07-30T07:42:50;3.20;;;2.90;;
15402;SDS011;7799;53.478;10.170;2023-07-30T07:45:16;3.13;;;2.93;;
15402;SDS011;7799;53.478;10.170;2023-07-30T07:47:43;2.63;;;2.43;;
15402;SDS011;7799;53.478;10.170;2023-07-30T07:50:09;3.67;;;3.20;;
15402;SDS011;7799;53.478;10.170;2023-07-30T07:52:36;3.20;;;2.90;;
15402;SDS011;7799;53.478;10.170;2023-07-30T07:55:03;3.30;;;3.00;;
15402;SDS011;7799;53.478;10.170;2023-07-30T07:57:32;5.40;;;4.60;;
15402;SDS011;7799;53.478;10.170;2023-07-30T07:59:58;5.00;;;4.60;;
15402;SDS011;7799;53.478;10.170;2023-07-30T08:02:25;4.50;;;4.10;;
15402;SDS011;7799;53.478;10.170;2023-07-30T08:04:52;4.57;;;4.17;;
15402;SDS011;7799;53.478;10.170;2023-07-30T08:07:18;3.67;;;3.37;;
15402;SDS011;7799;53.478;10.170;2023-07-30T08:09:45;4.43;;;3.90;;
15402;SDS011;7799;53.478;10.170;2023-07-30T08:12:12;4.00;;;3.70;;
15402;SDS011;7799;53.478;10.170;2023-07-30T08:14:40;4.10;;;3.70;;
15402;SDS011;7799;53.478;10.170;2023-07-30T08:17:07;3.70;;;3.30;;
15402;SDS011;7799;53.478;10.170;2023-07-30T08:19:33;4.10;;;2.90;;
15402;SDS011;7799;53.478;10.170;2023-07-30T08:22:00;3.97;;;3.10;;
15402;SDS011;7799;53.478;10.170;2023-07-30T08:24:27;4.03;;;3.30;;
15402;SDS011;7799;53.478;10.170;2023-07-30T08:26:53;3.00;;;2.67;;
15402;SDS011;7799;53.478;10.170;2023-07-30T08:29:20;4.83;;;2.90;;
15402;SDS011;7799;53.478;10.170;2023-07-30T08:31:48;2.80;;;2.57;;
15402;SDS011;7799;53.478;10.170;2023-07-30T08:34:15;2.60;;;2.20;;
15402;SDS011;7799;53.478;10.170;2023-07-30T08:36:41;4.20;;;2.40;;
15402;SDS011;7799;53.478;10.170;2023-07-30T08:39:08;3.20;;;1.83;;
15402;SDS011;7799;53.478;10.170;2023-07-30T08:41:35;2.70;;;1.70;;
15402;SDS011;7799;53.478;10.170;2023-07-30T08:44:01;2.67;;;1.90;;
15402;SDS011;7799;53.478;10.170;2023-07-30T08:46:28;2.20;;;1.90;;
15402;SDS011;7799;53.478;10.170;2023-07-30T08:48:56;2.33;;;1.60;;
15402;SDS011;7799;53.478;10.170;2023-07-30T08:51:23;2.67;;;2.13;;
15402;SDS011;7799;53.478;10.170;2023-07-30T08:53:52;2.23;;;1.90;;
15402;SDS011;7799;53.478;10.170;2023-07-30T08:56:18;3.80;;;2.28;;
15402;SDS011;7799;53.478;10.170;2023-07-30T08:58:45;3.92;;;2.17;;
15402;SDS011;7799;53.478;10.170;2023-07-30T09:01:12;3.45;;;2.17;;
15402;SDS011;7799;53.478;10.170;2023-07-30T09:03:40;3.45;;;2.20;;
15402;SDS011;7799;53.478;10.170;2023-07-30T09:06:08;3.08;;;1.85;;
15402;SDS011;7799;53.478;10.170;2023-07-30T09:08:35;3.22;;;1.92;;
15402;SDS011;7799;53.478;10.170;2023-07-30T09:11:08;2.38;;;2.13;;
15402;SDS011;7799;53.478;10.170;2023-07-30T09:13:38;2.65;;;2.08;;
15402;SDS011;7799;53.478;10.170;2023-07-30T09:16:08;1.98;;;1.70;;
15402;SDS011;7799;53.478;10.170;2023-07-30T09:18:39;2.22;;;1.90;;
15402;SDS011;7799;53.478;10.170;2023-07-30T09:21:06;2.20;;;1.67;;
15402;SDS011;7799;53.478;10.170;2023-07-30T09:23:38;3.20;;;1.75;;
15402;SDS011;7799;53.478;10.170;2023-07-30T09:26:06;3.10;;;1.60;;
15402;SDS011;7799;53.478;10.170;2023-07-30T09:28:32;2.83;;;1.80;;
15402;SDS011;7799;53.478;10.170;2023-07-30T09:31:00;1.97;;;1.50;;
15402;SDS011;7799;53.478;10.170;2023-07-30T09:33:26;2.80;;;1.80;;
15402;SDS011;7799;53.478;10.170;2023-07-30T09:35:53;2.23;;;1.40;;
15402;SDS011;7799;53.478;10.170;2023-07-30T09:38:22;2.27;;;1.43;;
15402;SDS011;7799;53.478;10.170;2023-07-30T09:40:49;4.43;;;1.80;;
15402;SDS011;7799;53.478;10.170;2023-07-30T09:43:15;1.90;;;1.37;;
15402;SDS011;7799;53.478;10.170;2023-07-30T09:45:44;2.77;;;1.70;;
15402;SDS011;7799;53.478;10.170;2023-07-30T09:48:12;3.07;;;1.80;;
15402;SDS011;7799;53.478;10.170;2023-07-30T09:50:38;3.73;;;1.73;;
15402;SDS011;7799;53.478;10.170;2023-07-30T09:53:05;1.83;;;1.63;;
15402;SDS011;7799;53.478;10.170;2023-07-30T09:55:33;2.43;;;1.83;;
15402;SDS011;7799;53.478;10.170;2023-07-30T09:58:00;1.57;;;1.47;;
15402;SDS011;7799;53.478;10.170;2023-07-30T10:00:26;2.10;;;1.60;;
15402;SDS011;7799;53.478;10.170;2023-07-30T10:02:54;1.83;;;1.50;;
15402;SDS011;7799;53.478;10.170;2023-07-30T10:05:22;2.90;;;1.93;;
15402;SDS011;7799;53.478;10.170;2023-07-30T10:07:53;2.90;;;1.73;;
15402;SDS011;7799;53.478;10.170;2023-07-30T10:10:21;2.57;;;1.60;;
15402;SDS011;7799;53.478;10.170;2023-07-30T10:12:52;4.37;;;1.90;;
15402;SDS011;7799;53.478;10.170;2023-07-30T10:15:19;2.77;;;1.60;;
15402;SDS011;7799;53.478;10.170;2023-07-30T10:17:48;2.37;;;2.17;;
15402;SDS011;7799;53.478;10.170;2023-07-30T10:20:19;2.90;;;2.00;;
15402;SDS011;7799;53.478;10.170;2023-07-30T10:22:50;2.50;;;1.90;;
15402;SDS011;7799;53.478;10.170;2023-07-30T10:25:17;2.20;;;1.57;;
15402;SDS011;7799;53.478;10.170;2023-07-30T10:27:49;2.07;;;1.57;;
15402;SDS011;7799;53.478;10.170;2023-07-30T10:30:18;2.57;;;1.60;;
15402;SDS011;7799;53.478;10.170;2023-07-30T10:32:58;2.57;;;1.47;;
15402;SDS011;7799;53.478;10.170;2023-07-30T10:35:36;3.00;;;1.77;;
15402;SDS011;7799;53.478;10.170;2023-07-30T10:38:13;1.77;;;1.50;;
15402;SDS011;7799;53.478;10.170;2023-07-30T10:40:40;3.30;;;1.70;;
15402;SDS011;7799;53.478;10.170;2023-07-30T10:43:14;2.73;;;1.77;;
15402;SDS011;7799;53.478;10.170;2023-07-30T10:45:49;3.13;;;2.07;;
15402;SDS011;7799;53.478;10.170;2023-07-30T10:48:16;3.23;;;2.00;;
15402;SDS011;7799;53.478;10.170;2023-07-30T10:50:43;2.13;;;1.73;;
15402;SDS011;7799;53.478;10.170;2023-07-30T10:53:13;4.17;;;1.97;;
15402;SDS011;7799;53.478;10.170;2023-07-30T10:55:40;2.23;;;1.37;;
15402;SDS011;7799;53.478;10.170;2023-07-30T10:58:07;1.63;;;1.30;;
15402;SDS011;7799;53.478;10.170;2023-07-30T11:00:34;2.10;;;1.30;;
15402;SDS011;7799;53.478;10.170;2023-07-30T11:03:02;1.87;;;1.40;;
15402;SDS011;7799;53.478;10.170;2023-07-30T11:05:29;2.00;;;1.50;;
15402;SDS011;7799;53.478;10.170;2023-07-30T11:07:56;2.20;;;1.40;;
15402;SDS011;7799;53.478;10.170;2023-07-30T11:10:22;2.53;;;1.60;;
15402;SDS011;7799;53.478;10.170;2023-07-30T11:12:49;1.70;;;1.60;;
15402;SDS011;7799;53.478;10.170;2023-07-30T11:15:17;2.30;;;1.60;;
15402;SDS011;7799;53.478;10.170;2023-07-30T11:17:44;1.60;;;1.50;;
15402;SDS011;7799;53.478;10.170;2023-07-30T11:20:22;1.57;;;1.43;;
15402;SDS011;7799;53.478;10.170;2023-07-30T11:22:52;2.03;;;1.60;;
15402;SDS011;7799;53.478;10.170;2023-07-30T11:25:18;2.27;;;1.40;;
15402;SDS011;7799;53.478;10.170;2023-07-30T11:27:46;1.20;;;1.10;;
15402;SDS011;7799;53.478;10.170;2023-07-30T11:30:12;2.50;;;1.30;;
15402;SDS011;7799;53.478;10.170;2023-07-30T11:32:39;1.63;;;1.30;;
15402;SDS011;7799;53.478;10.170;2023-07-30T11:35:07;3.17;;;1.30;;
15402;SDS011;7799;53.478;10.170;2023-07-30T11:37:35;1.98;;;1.40;;
15402;SDS011;7799;53.478;10.170;2023-07-30T11:40:05;2.53;;;1.25;;
15402;SDS011;7799;53.478;10.170;2023-07-30T11:42:33;1.60;;;1.23;;
15402;SDS011;7799;53.478;10.170;2023-07-30T11:47:45;1.77;;;1.45;;
15402;SDS011;7799;53.478;10.170;2023-07-30T11:50:12;2.00;;;1.80;;
15402;SDS011;7799;53.478;10.170;2023-07-30T11:52:52;2.28;;;2.05;;
15402;SDS011;7799;53.478;10.170;2023-07-30T11:55:19;2.97;;;2.10;;
15402;SDS011;7799;53.478;10.170;2023-07-30T11:57:46;2.97;;;1.67;;
15402;SDS011;7799;53.478;10.170;2023-07-30T12:00:13;2.50;;;1.40;;
15402;SDS011;7799;53.478;10.170;2023-07-30T12:02:40;1.63;;;1.10;;
15402;SDS011;7799;53.478;10.170;2023-07-30T12:05:09;2.03;;;1.20;;
15402;SDS011;7799;53.478;10.170;2023-07-30T12:07:39;1.95;;;1.40;;
15402;SDS011;7799;53.478;10.170;2023-07-30T12:10:08;1.55;;;1.38;;
15402;SDS011;7799;53.478;10.170;2023-07-30T12:12:35;1.10;;;1.00;;
15402;SDS011;7799;53.478;10.170;2023-07-30T12:15:09;1.67;;;1.10;;
15402;SDS011;7799;53.478;10.170;2023-07-30T12:17:36;1.73;;;1.10;;
15402;SDS011;7799;53.478;10.170;2023-07-30T12:20:03;1.95;;;1.08;;
15402;SDS011;7799;53.478;10.170;2023-07-30T12:22:32;1.27;;;0.90;;
15402;SDS011;7799;53.478;10.170;2023-07-30T12:25:00;1.80;;;0.98;;
15402;SDS011;7799;53.478;10.170;2023-07-30T12:27:28;1.33;;;1.05;;
15402;SDS011;7799;53.478;10.170;2023-07-30T12:29:55;2.70;;;1.15;;
15402;SDS011;7799;53.478;10.170;2023-07-30T12:32:21;1.40;;;1.10;;
15402;SDS011;7799;53.478;10.170;2023-07-30T12:34:49;1.08;;;0.98;;
15402;SDS011;7799;53.478;10.170;2023-07-30T12:37:16;1.30;;;1.17;;
15402;SDS011;7799;53.478;10.170;2023-07-30T12:39:43;1.73;;;1.20;;
15402;SDS011;7799;53.478;10.170;2023-07-30T12:42:09;1.20;;;1.10;;
15402;SDS011;7799;53.478;10.170;2023-07-30T12:44:37;3.75;;;1.40;;
15402;SDS011;7799;53.478;10.170;2023-07-30T12:47:04;1.98;;;1.40;;
15402;SDS011;7799;53.478;10.170;2023-07-30T12:49:31;2.35;;;1.35;;
15402;SDS011;7799;53.478;10.170;2023-07-30T12:51:57;2.45;;;1.50;;
15402;SDS011;7799;53.478;10.170;2023-07-30T12:54:24;1.95;;;1.30;;
15402;SDS011;7799;53.478;10.170;2023-07-30T12:56:51;4.22;;;1.63;;
15402;SDS011;7799;53.478;10.170;2023-07-30T12:59:17;2.05;;;1.30;;
15402;SDS011;7799;53.478;10.170;2023-07-30T13:01:45;2.30;;;1.60;;
15402;SDS011;7799;53.478;10.170;2023-07-30T13:04:12;2.97;;;1.50;;
15402;SDS011;7799;53.478;10.170;2023-07-30T13:06:39;1.30;;;1.20;;
15402;SDS011;7799;53.478;10.170;2023-07-30T13:09:06;1.63;;;1.08;;
15402;SDS011;7799;53.478;10.170;2023-07-30T13:11:32;2.08;;;1.35;;
15402;SDS011;7799;53.478;10.170;2023-07-30T13:13:59;2.72;;;1.45;;
15402;SDS011;7799;53.478;10.170;2023-07-30T13:16:26;2.08;;;1.45;;
15402;SDS011;7799;53.478;10.170;2023-07-30T13:18:54;1.10;;;1.00;;
15402;SDS011;7799;53.478;10.170;2023-07-30T13:21:22;2.60;;;1.33;;
15402;SDS011;7799;53.478;10.170;2023-07-30T13:23:48;2.33;;;1.60;;
15402;SDS011;7799;53.478;10.170;2023-07-30T13:26:15;5.67;;;2.03;;
15402;SDS011;7799;53.478;10.170;2023-07-30T13:28:42;1.60;;;1.00;;
15402;SDS011;7799;53.478;10.170;2023-07-30T13:31:09;1.97;;;1.07;;
15402;SDS011;7799;53.478;10.170;2023-07-30T13:33:36;1.67;;;0.90;;
15402;SDS011;7799;53.478;10.170;2023-07-30T13:36:05;1.07;;;0.77;;
15402;SDS011;7799;53.478;10.170;2023-07-30T13:38:31;1.07;;;0.77;;
15402;SDS011;7799;53.478;10.170;2023-07-30T13:40:58;1.20;;;0.70;;
15402;SDS011;7799;53.478;10.170;2023-07-30T13:43:25;1.47;;;0.70;;
15402;SDS011;7799;53.478;10.170;2023-07-30T13:45:51;2.00;;;0.87;;
15402;SDS011;7799;53.478;10.170;2023-07-30T13:48:19;2.07;;;0.70;;
15402;SDS011;7799;53.478;10.170;2023-07-30T13:50:45;1.17;;;0.70;;
15402;SDS011;7799;53.478;10.170;2023-07-30T13:53:13;1.10;;;0.67;;
15402;SDS011;7799;53.478;10.170;2023-07-30T13:55:40;0.83;;;0.60;;
15402;SDS011;7799;53.478;10.170;2023-07-30T13:58:07;1.70;;;0.77;;
15402;SDS011;7799;53.478;10.170;2023-07-30T14:00:34;1.37;;;0.90;;
15402;SDS011;7799;53.478;10.170;2023-07-30T14:03:01;1.27;;;0.60;;
15402;SDS011;7799;53.478;10.170;2023-07-30T14:05:28;1.93;;;0.90;;
15402;SDS011;7799;53.478;10.170;2023-07-30T14:07:54;1.50;;;0.70;;
15402;SDS011;7799;53.478;10.170;2023-07-30T14:10:23;1.40;;;1.20;;
15402;SDS011;7799;53.478;10.170;2023-07-30T14:12:50;1.30;;;0.80;;
15402;SDS011;7799;53.478;10.170;2023-07-30T14:15:16;0.90;;;0.70;;
15402;SDS011;7799;53.478;10.170;2023-07-30T14:17:43;0.80;;;0.60;;
15402;SDS011;7799;53.478;10.170;2023-07-30T14:20:10;1.10;;;0.60;;
15402;SDS011;7799;53.478;10.170;2023-07-30T14:22:36;0.50;;;0.50;;
15402;SDS011;7799;53.478;10.170;2023-07-30T14:25:03;0.73;;;0.60;;
15402;SDS011;7799;53.478;10.170;2023-07-30T14:27:32;0.63;;;0.63;;
15402;SDS011;7799;53.478;10.170;2023-07-30T14:29:58;1.40;;;0.70;;
15402;SDS011;7799;53.478;10.170;2023-07-30T14:32:25;1.20;;;0.90;;
15402;SDS011;7799;53.478;10.170;2023-07-30T14:34:52;0.67;;;0.67;;
15402;SDS011;7799;53.478;10.170;2023-07-30T14:37:18;0.70;;;0.70;;
15402;SDS011;7799;53.478;10.170;2023-07-30T14:39:45;0.83;;;0.70;;
15402;SDS011;7799;53.478;10.170;2023-07-30T14:42:12;0.70;;;0.70;;
15402;SDS011;7799;53.478;10.170;2023-07-30T14:44:40;1.07;;;0.80;;
15402;SDS011;7799;53.478;10.170;2023-07-30T14:47:06;1.30;;;0.70;;
15402;SDS011;7799;53.478;10.170;2023-07-30T14:49:35;0.83;;;0.80;;
15402;SDS011;7799;53.478;10.170;2023-07-30T14:52:02;1.67;;;0.90;;